Time;durP1;ratioP1;P1;durP2;ratioP2;P2;SDS_P1;SDS_P2;PMS_P1;PMS_P2;Temp;Humidity;BMP_temperature;BMP_pressure;BME280_temperature;BME280_humidity;BME280_pressure;Samples;Min_cycle;Max_cycle;Signal;HPM_P1;HPM_P2
2022/05/22 00:02:01;;;;;;;7.95;4.70;;;;;;;;;;5049544;28;20021;-66
2022/05/22 00:04:26;;;;;;;11.90;5.13;;;;;;;;;;5047533;28;20017;-65
2022/05/22 00:06:51;;;;;;;10.18;5.07;;;;;;;;;;5046243;28;20109;-66
2022/05/22 00:09:16;;;;;;;11.65;5.53;;;;;;;;;;5049198;28;20020;-65
2022/05/22 00:11:42;;;;;;;12.65;4.93;;;;;;;;;;5050050;28;20028;-65
2022/05/22 00:14:07;;;;;;;20.48;4.93;;;;;;;;;;5050588;28;20411;-65
2022/05/22 00:16:42;;;;;;;18.35;6.07;;;;;;;;;;5050302;28;20021;-65
2022/05/22 00:19:09;;;;;;;14.65;5.28;;;;;;;;;;5049590;28;20055;-66
2022/05/22 00:21:35;;;;;;;12.73;5.35;;;;;;;;;;5040088;28;20029;-65
2022/05/22 00:24:00;;;;;;;18.40;6.55;;;;;;;;;;5049929;28;20048;-65
2022/05/22 00:26:25;;;;;;;12.95;6.07;;;;;;;;;;5049894;28;20031;-65
2022/05/22 00:28:51;;;;;;;13.87;5.93;;;;;;;;;;5047667;28;20039;-66
2022/05/22 00:31:17;;;;;;;18.08;5.70;;;;;;;;;;5049475;28;20255;-65
2022/05/22 00:33:42;;;;;;;11.70;5.85;;;;;;;;;;5050471;28;20112;-65
2022/05/22 00:36:07;;;;;;;18.67;6.47;;;;;;;;;;5051687;28;20024;-66
2022/05/22 00:38:32;;;;;;;14.38;6.00;;;;;;;;;;5047419;28;20436;-65
2022/05/22 00:40:57;;;;;;;12.30;5.53;;;;;;;;;;5051167;28;20035;-65
2022/05/22 00:43:29;;;;;;;20.50;6.65;;;;;;;;;;5048675;28;20508;-65
2022/05/22 00:45:54;;;;;;;12.52;6.30;;;;;;;;;;5047272;28;20025;-65
2022/05/22 00:48:19;;;;;;;12.63;6.20;;;;;;;;;;5048597;28;20024;-65
2022/05/22 00:50:45;;;;;;;19.27;6.32;;;;;;;;;;5042639;28;20025;-65
2022/05/22 00:53:10;;;;;;;18.73;7.53;;;;;;;;;;5046090;28;20083;-65
2022/05/22 00:55:35;;;;;;;18.95;7.78;;;;;;;;;;5050058;28;20024;-65
2022/05/22 00:58:04;;;;;;;15.75;6.28;;;;;;;;;;5051427;28;20025;-65
2022/05/22 01:00:31;;;;;;;21.90;6.60;;;;;;;;;;5048361;28;20104;-65
2022/05/22 01:05:42;;;;;;;13.10;5.75;;;;;;;;;;5052076;28;20032;-65
2022/05/22 01:08:07;;;;;;;16.88;6.15;;;;;;;;;;5053006;28;20389;-65
2022/05/22 01:10:39;;;;;;;14.87;6.80;;;;;;;;;;5046538;28;20021;-65
2022/05/22 01:13:04;;;;;;;14.98;6.65;;;;;;;;;;5046621;28;20267;-65
2022/05/22 01:15:29;;;;;;;17.60;6.93;;;;;;;;;;5048428;28;20051;-65
2022/05/22 01:17:55;;;;;;;18.75;6.38;;;;;;;;;;5052535;28;20071;-65
2022/05/22 01:20:20;;;;;;;13.20;5.43;;;;;;;;;;5034499;28;20029;-65
2022/05/22 01:22:45;;;;;;;12.43;6.03;;;;;;;;;;5048705;28;20032;-65
2022/05/22 01:25:11;;;;;;;11.27;6.20;;;;;;;;;;5051441;28;20810;-65
2022/05/22 01:27:37;;;;;;;14.30;6.55;;;;;;;;;;5043740;28;20276;-65
2022/05/22 01:30:07;;;;;;;14.20;6.55;;;;;;;;;;5047803;28;20237;-65
2022/05/22 01:32:33;;;;;;;15.25;6.32;;;;;;;;;;5047418;28;20048;-65
2022/05/22 01:34:58;;;;;;;13.35;6.15;;;;;;;;;;5050410;28;20017;-65
2022/05/22 01:37:24;;;;;;;17.73;6.73;;;;;;;;;;5048497;28;20029;-65
2022/05/22 01:39:49;;;;;;;22.90;6.78;;;;;;;;;;5048936;28;20374;-65
2022/05/22 01:42:14;;;;;;;19.45;6.82;;;;;;;;;;5048678;28;20029;-65
2022/05/22 01:44:40;;;;;;;11.87;6.80;;;;;;;;;;5049289;28;20052;-65
2022/05/22 01:47:05;;;;;;;15.87;7.10;;;;;;;;;;5049114;28;20279;-65
2022/05/22 01:49:30;;;;;;;16.55;7.10;;;;;;;;;;5055142;28;20760;-65
2022/05/22 01:51:56;;;;;;;22.33;7.75;;;;;;;;;;5051817;28;20056;-65
2022/05/22 01:54:21;;;;;;;19.47;6.60;;;;;;;;;;5054571;28;20028;-66
2022/05/22 01:56:46;;;;;;;14.30;6.70;;;;;;;;;;5054175;28;20358;-65
2022/05/22 01:59:11;;;;;;;14.55;6.90;;;;;;;;;;5053717;28;20662;-65
2022/05/22 02:01:36;;;;;;;12.68;6.22;;;;;;;;;;5054785;28;20031;-65
2022/05/22 02:04:02;;;;;;;14.10;7.28;;;;;;;;;;5055196;28;20029;-65
2022/05/22 02:06:27;;;;;;;18.25;6.78;;;;;;;;;;5056597;28;20032;-65
2022/05/22 02:08:53;;;;;;;12.73;6.13;;;;;;;;;;5051594;28;20017;-65
2022/05/22 02:11:18;;;;;;;19.65;7.32;;;;;;;;;;5055166;28;20461;-65
2022/05/22 02:13:44;;;;;;;14.88;7.20;;;;;;;;;;5054946;28;20104;-65
2022/05/22 02:16:10;;;;;;;31.15;7.43;;;;;;;;;;5054802;28;20021;-65
2022/05/22 02:18:35;;;;;;;20.45;7.22;;;;;;;;;;5054040;28;20075;-66
2022/05/22 02:21:00;;;;;;;17.48;6.75;;;;;;;;;;5055171;28;20524;-65
2022/05/22 02:23:25;;;;;;;14.93;6.57;;;;;;;;;;5059227;28;20104;-65
2022/05/22 02:25:52;;;;;;;16.88;7.32;;;;;;;;;;5056225;28;20029;-65
2022/05/22 02:28:18;;;;;;;24.45;7.28;;;;;;;;;;5052581;28;20013;-65
2022/05/22 02:30:45;;;;;;;15.48;6.80;;;;;;;;;;5055214;28;20432;-65
2022/05/22 02:33:10;;;;;;;20.52;7.22;;;;;;;;;;5052218;28;20029;-65
2022/05/22 02:35:36;;;;;;;15.30;6.82;;;;;;;;;;5072263;28;20047;-65
2022/05/22 02:38:02;;;;;;;10.70;6.93;;;;;;;;;;5050940;28;20067;-65
2022/05/22 02:40:28;;;;;;;13.32;6.10;;;;;;;;;;5067678;28;20388;-65
2022/05/22 02:42:54;;;;;;;18.75;7.80;;;;;;;;;;5053970;28;20549;-65
2022/05/22 02:45:21;;;;;;;17.88;7.18;;;;;;;;;;5055900;28;20016;-65
2022/05/22 02:47:46;;;;;;;18.25;6.88;;;;;;;;;;5052332;28;20021;-65
2022/05/22 02:50:12;;;;;;;19.27;7.43;;;;;;;;;;5048659;28;20023;-65
2022/05/22 02:52:37;;;;;;;14.65;7.50;;;;;;;;;;5055822;28;20032;-65
2022/05/22 02:55:03;;;;;;;22.57;8.40;;;;;;;;;;5053332;28;20519;-65
2022/05/22 02:57:28;;;;;;;22.10;7.20;;;;;;;;;;5053056;28;20317;-65
2022/05/22 02:59:54;;;;;;;15.47;7.33;;;;;;;;;;5052457;28;20048;-65
2022/05/22 03:02:19;;;;;;;14.73;6.97;;;;;;;;;;5047718;28;20275;-65
2022/05/22 03:04:45;;;;;;;24.42;7.25;;;;;;;;;;5054330;28;20028;-65
2022/05/22 03:07:12;;;;;;;18.35;7.07;;;;;;;;;;5072559;28;20380;-65
2022/05/22 03:09:38;;;;;;;15.20;7.00;;;;;;;;;;5050580;28;20476;-65
2022/05/22 03:12:10;;;;;;;17.65;7.28;;;;;;;;;;5052931;28;20013;-65
2022/05/22 03:14:35;;;;;;;20.77;7.90;;;;;;;;;;5050279;28;20028;-65
2022/05/22 03:17:01;;;;;;;18.42;7.07;;;;;;;;;;5051265;28;20028;-65
2022/05/22 03:19:26;;;;;;;22.85;8.30;;;;;;;;;;5045469;28;20029;-65
2022/05/22 03:21:51;;;;;;;13.95;7.47;;;;;;;;;;5048339;28;20029;-65
2022/05/22 03:24:16;;;;;;;17.75;7.60;;;;;;;;;;5051211;28;20435;-65
2022/05/22 03:26:42;;;;;;;14.30;8.13;;;;;;;;;;5049719;28;20025;-65
2022/05/22 03:29:07;;;;;;;15.80;7.27;;;;;;;;;;5047627;28;20024;-65
2022/05/22 03:31:32;;;;;;;21.30;7.70;;;;;;;;;;5049890;28;20350;-65
2022/05/22 03:33:57;;;;;;;18.50;8.07;;;;;;;;;;5049422;28;20278;-65
2022/05/22 03:36:22;;;;;;;17.75;8.60;;;;;;;;;;5052154;28;20604;-65
2022/05/22 03:38:47;;;;;;;18.35;7.68;;;;;;;;;;5050826;28;20094;-65
2022/05/22 03:41:13;;;;;;;17.95;7.57;;;;;;;;;;5050673;28;20025;-65
2022/05/22 03:43:38;;;;;;;17.13;9.52;;;;;;;;;;5050562;28;20090;-66
2022/05/22 03:46:03;;;;;;;20.75;8.38;;;;;;;;;;5050419;28;20024;-66
2022/05/22 03:48:28;;;;;;;14.20;7.60;;;;;;;;;;5053146;28;20051;-65
2022/05/22 03:50:54;;;;;;;17.05;7.97;;;;;;;;;;5047154;28;20279;-65
2022/05/22 03:53:19;;;;;;;12.25;7.97;;;;;;;;;;5050437;28;20021;-65
2022/05/22 03:55:44;;;;;;;19.90;9.05;;;;;;;;;;5049170;28;20029;-65
2022/05/22 03:58:10;;;;;;;22.08;8.23;;;;;;;;;;5054183;28;20025;-65
2022/05/22 04:00:35;;;;;;;16.00;7.63;;;;;;;;;;5051190;28;20037;-65
2022/05/22 04:03:00;;;;;;;13.85;7.78;;;;;;;;;;5046686;28;20025;-65
2022/05/22 04:05:26;;;;;;;18.33;7.63;;;;;;;;;;5047460;28;20017;-65
2022/05/22 04:07:51;;;;;;;17.52;8.23;;;;;;;;;;5046994;28;20013;-65
2022/05/22 04:10:17;;;;;;;15.37;7.83;;;;;;;;;;5050188;28;20028;-65
2022/05/22 04:12:43;;;;;;;15.18;8.27;;;;;;;;;;5049555;28;20362;-65
2022/05/22 04:15:09;;;;;;;22.27;8.43;;;;;;;;;;5050463;28;20444;-65
2022/05/22 04:17:35;;;;;;;17.45;8.07;;;;;;;;;;5049398;28;20378;-65
2022/05/22 04:20:00;;;;;;;23.05;8.40;;;;;;;;;;5049019;28;20021;-65
2022/05/22 04:22:25;;;;;;;13.68;7.65;;;;;;;;;;5050289;28;20211;-65
2022/05/22 04:27:39;;;;;;;18.17;7.57;;;;;;;;;;5047947;28;20063;-65
2022/05/22 04:30:04;;;;;;;15.45;7.50;;;;;;;;;;5045844;28;20022;-66
2022/05/22 04:32:29;;;;;;;22.38;8.00;;;;;;;;;;5049923;28;20036;-65
2022/05/22 04:34:55;;;;;;;19.60;7.60;;;;;;;;;;5049621;28;20093;-65
2022/05/22 04:37:20;;;;;;;15.47;8.27;;;;;;;;;;5051300;28;20838;-64
2022/05/22 04:39:45;;;;;;;16.27;8.00;;;;;;;;;;5048947;28;20283;-66
2022/05/22 04:42:10;;;;;;;24.33;8.70;;;;;;;;;;5049223;28;20325;-65
2022/05/22 04:44:35;;;;;;;16.57;8.17;;;;;;;;;;5048589;28;20283;-65
2022/05/22 04:47:00;;;;;;;15.27;7.67;;;;;;;;;;5051450;28;20302;-65
2022/05/22 04:49:26;;;;;;;18.60;9.13;;;;;;;;;;5054095;28;20354;-64
2022/05/22 04:51:51;;;;;;;17.70;7.95;;;;;;;;;;5048744;28;20271;-65
2022/05/22 04:54:16;;;;;;;17.43;9.13;;;;;;;;;;5046170;28;20483;-65
2022/05/22 04:56:41;;;;;;;20.77;8.07;;;;;;;;;;5051178;28;20268;-65
2022/05/22 04:59:06;;;;;;;19.23;8.80;;;;;;;;;;5046794;28;20266;-65
2022/05/22 05:01:32;;;;;;;13.83;8.47;;;;;;;;;;5046666;28;20295;-65
2022/05/22 05:03:57;;;;;;;15.43;8.43;;;;;;;;;;5049060;28;20283;-65
2022/05/22 05:06:22;;;;;;;22.08;8.00;;;;;;;;;;5050480;28;20017;-65
2022/05/22 05:08:48;;;;;;;16.27;8.02;;;;;;;;;;5049357;28;20926;-65
2022/05/22 05:11:13;;;;;;;16.80;7.93;;;;;;;;;;5047264;28;20032;-65
2022/05/22 05:13:38;;;;;;;21.92;8.63;;;;;;;;;;5049147;28;20017;-65
2022/05/22 05:16:06;;;;;;;14.55;8.07;;;;;;;;;;5047565;28;20029;-65
2022/05/22 05:18:31;;;;;;;17.90;8.23;;;;;;;;;;5048988;28;20243;-65
2022/05/22 05:20:59;;;;;;;16.15;8.05;;;;;;;;;;5049033;28;20473;-65
2022/05/22 05:23:24;;;;;;;17.75;7.38;;;;;;;;;;5045444;28;20490;-65
2022/05/22 05:25:49;;;;;;;16.73;8.47;;;;;;;;;;5050633;28;20035;-65
2022/05/22 05:28:14;;;;;;;19.90;8.32;;;;;;;;;;5058825;28;20267;-65
2022/05/22 05:30:40;;;;;;;20.17;8.57;;;;;;;;;;5049434;28;20066;-65
2022/05/22 05:33:05;;;;;;;16.63;8.85;;;;;;;;;;5048376;28;20314;-65
2022/05/22 05:35:31;;;;;;;13.60;7.30;;;;;;;;;;5049305;28;20075;-65
2022/05/22 05:37:56;;;;;;;15.73;7.50;;;;;;;;;;5047928;28;20267;-65
2022/05/22 05:40:21;;;;;;;16.77;7.88;;;;;;;;;;5040342;28;20510;-65
2022/05/22 05:42:48;;;;;;;10.80;6.93;;;;;;;;;;5049227;28;20025;-65
2022/05/22 05:45:14;;;;;;;16.85;7.65;;;;;;;;;;5048616;28;20268;-65
2022/05/22 05:47:39;;;;;;;15.13;7.80;;;;;;;;;;5050356;28;20089;-65
2022/05/22 05:50:05;;;;;;;15.00;7.63;;;;;;;;;;5048180;28;20128;-65
2022/05/22 05:52:31;;;;;;;15.50;8.20;;;;;;;;;;5047555;28;20420;-65
2022/05/22 05:54:56;;;;;;;16.25;8.18;;;;;;;;;;5048829;28;20021;-65
2022/05/22 05:57:21;;;;;;;20.20;6.73;;;;;;;;;;5050747;28;20032;-65
2022/05/22 05:59:46;;;;;;;15.40;7.27;;;;;;;;;;5046892;28;20279;-65
2022/05/22 06:02:14;;;;;;;16.97;8.23;;;;;;;;;;5048991;28;20274;-65
2022/05/22 06:04:39;;;;;;;16.58;6.70;;;;;;;;;;5049117;28;20291;-66
2022/05/22 06:07:05;;;;;;;26.05;7.82;;;;;;;;;;5048007;28;20121;-65
2022/05/22 06:09:30;;;;;;;14.68;5.93;;;;;;;;;;5051254;28;20025;-65
2022/05/22 06:11:55;;;;;;;18.88;6.78;;;;;;;;;;5054515;28;20028;-65
2022/05/22 06:14:20;;;;;;;15.70;7.27;;;;;;;;;;5049697;28;20013;-65
2022/05/22 06:16:47;;;;;;;17.67;5.97;;;;;;;;;;5048698;28;20377;-65
2022/05/22 06:19:12;;;;;;;11.07;5.88;;;;;;;;;;5047072;28;20307;-65
2022/05/22 06:21:37;;;;;;;14.38;5.85;;;;;;;;;;5047151;28;20025;-65
2022/05/22 06:24:02;;;;;;;11.87;5.83;;;;;;;;;;5054222;28;20403;-65
2022/05/22 06:26:27;;;;;;;17.98;5.57;;;;;;;;;;5048935;28;20322;-65
2022/05/22 06:28:53;;;;;;;16.80;7.53;;;;;;;;;;5048095;28;20021;-65
2022/05/22 06:31:18;;;;;;;12.73;5.17;;;;;;;;;;5047940;28;20679;-65
2022/05/22 06:33:44;;;;;;;21.10;5.63;;;;;;;;;;5045026;28;20282;-65
2022/05/22 06:36:10;;;;;;;15.65;4.82;;;;;;;;;;5047902;28;20307;-66
2022/05/22 06:41:19;;;;;;;15.80;5.18;;;;;;;;;;5051750;28;20027;-66
2022/05/22 06:43:46;;;;;;;14.40;4.25;;;;;;;;;;5050533;28;20104;-66
2022/05/22 06:46:11;;;;;;;7.22;4.75;;;;;;;;;;5048036;28;20457;-66
2022/05/22 06:48:36;;;;;;;13.55;5.32;;;;;;;;;;5049807;28;20048;-66
2022/05/22 06:51:01;;;;;;;15.70;4.60;;;;;;;;;;5047997;28;20021;-66
2022/05/22 06:53:27;;;;;;;13.98;4.72;;;;;;;;;;5049232;28;20278;-66
2022/05/22 06:55:52;;;;;;;10.97;4.27;;;;;;;;;;5052235;28;20017;-66
2022/05/22 06:58:17;;;;;;;8.67;3.37;;;;;;;;;;5052532;28;20251;-66
2022/05/22 07:00:42;;;;;;;10.10;4.87;;;;;;;;;;5048018;28;20278;-66
2022/05/22 07:03:07;;;;;;;9.32;3.85;;;;;;;;;;5050493;28;20324;-66
2022/05/22 07:05:33;;;;;;;14.18;4.28;;;;;;;;;;5050373;28;20028;-66
2022/05/22 07:07:58;;;;;;;16.10;4.37;;;;;;;;;;5048688;28;20016;-66
2022/05/22 07:11:38;;;;;;;12.23;4.60;;;;;;;;;;5051588;28;20322;-66
2022/05/22 07:13:08;;;;;;;9.15;3.88;;;;;;;;;;5047555;28;20390;-66
2022/05/22 07:15:34;;;;;;;13.93;4.33;;;;;;;;;;5051353;28;20151;-66
2022/05/22 07:17:59;;;;;;;14.27;5.37;;;;;;;;;;5056610;28;20767;-66
2022/05/22 07:20:24;;;;;;;10.25;3.95;;;;;;;;;;5050969;28;20302;-66
2022/05/22 07:22:49;;;;;;;13.95;4.80;;;;;;;;;;5048188;28;20040;-66
2022/05/22 07:25:14;;;;;;;9.90;3.67;;;;;;;;;;5049509;28;20133;-66
2022/05/22 07:27:41;;;;;;;12.95;3.92;;;;;;;;;;5046624;28;20284;-66
2022/05/22 07:30:06;;;;;;;10.90;3.88;;;;;;;;;;5052267;28;20021;-66
2022/05/22 07:32:32;;;;;;;17.05;4.43;;;;;;;;;;5046595;28;20379;-66
2022/05/22 07:34:57;;;;;;;11.47;4.30;;;;;;;;;;5050489;28;20064;-66
2022/05/22 07:37:22;;;;;;;6.77;3.03;;;;;;;;;;5050213;28;20290;-66
2022/05/22 07:39:47;;;;;;;10.20;3.73;;;;;;;;;;5052012;28;20024;-66
2022/05/22 07:42:12;;;;;;;9.50;3.30;;;;;;;;;;5048291;28;20300;-67
2022/05/22 07:44:40;;;;;;;6.67;3.43;;;;;;;;;;5051038;28;20346;-67
2022/05/22 07:47:05;;;;;;;7.07;3.20;;;;;;;;;;5045892;28;20280;-67
2022/05/22 07:52:14;;;;;;;12.63;4.18;;;;;;;;;;5045237;28;20104;-67
2022/05/22 07:54:40;;;;;;;15.10;3.67;;;;;;;;;;5048314;28;20115;-67
2022/05/22 07:57:06;;;;;;;10.13;3.22;;;;;;;;;;5046936;28;20497;-66
2022/05/22 07:59:38;;;;;;;12.10;2.80;;;;;;;;;;5047845;28;20111;-66
2022/05/22 08:02:04;;;;;;;10.27;3.15;;;;;;;;;;5045818;28;20020;-66
2022/05/22 08:04:30;;;;;;;6.28;2.60;;;;;;;;;;5046174;28;20393;-66
2022/05/22 08:06:55;;;;;;;11.80;2.80;;;;;;;;;;5035967;28;20017;-66
2022/05/22 08:09:20;;;;;;;14.35;3.17;;;;;;;;;;5039525;28;20453;-66
2022/05/22 08:11:45;;;;;;;7.75;2.70;;;;;;;;;;5043621;28;20017;-66
2022/05/22 08:14:11;;;;;;;10.23;2.90;;;;;;;;;;5034627;28;20496;-66
2022/05/22 08:16:36;;;;;;;10.23;3.13;;;;;;;;;;5041534;28;20370;-66
2022/05/22 08:19:02;;;;;;;10.97;2.70;;;;;;;;;;5045328;28;20132;-66
2022/05/22 08:21:27;;;;;;;13.15;3.75;;;;;;;;;;5035432;28;20304;-66
2022/05/22 08:23:52;;;;;;;5.00;2.23;;;;;;;;;;5054620;28;20036;-66
2022/05/22 08:26:17;;;;;;;12.23;3.10;;;;;;;;;;5035092;28;20104;-65
2022/05/22 08:28:42;;;;;;;8.43;2.80;;;;;;;;;;5048222;28;20511;-66
2022/05/22 08:31:08;;;;;;;8.88;2.70;;;;;;;;;;5048559;28;20021;-66
2022/05/22 08:33:34;;;;;;;4.97;2.43;;;;;;;;;;5045033;28;20040;-67
2022/05/22 08:35:59;;;;;;;12.32;2.40;;;;;;;;;;5054050;28;20021;-66
2022/05/22 08:38:24;;;;;;;13.40;3.13;;;;;;;;;;5055045;28;20025;-66
2022/05/22 08:40:56;;;;;;;13.32;2.65;;;;;;;;;;5045105;28;20260;-66
2022/05/22 08:43:27;;;;;;;10.75;2.33;;;;;;;;;;5031272;28;20490;-66
2022/05/22 08:45:53;;;;;;;10.38;3.85;;;;;;;;;;5032101;28;20025;-66
2022/05/22 08:48:27;;;;;;;9.55;2.78;;;;;;;;;;5059089;28;20036;-66
2022/05/22 08:50:54;;;;;;;18.15;3.53;;;;;;;;;;5053749;28;20013;-66
2022/05/22 08:53:25;;;;;;;7.60;2.95;;;;;;;;;;5046575;28;20094;-66
2022/05/22 08:58:56;;;;;;;12.75;2.95;;;;;;;;;;5046309;28;20039;-66
2022/05/22 09:01:27;;;;;;;11.88;2.75;;;;;;;;;;5042031;28;20025;-68
2022/05/22 09:04:11;;;;;;;8.35;2.13;;;;;;;;;;5041543;28;20033;-66
2022/05/22 09:06:39;;;;;;;11.82;3.05;;;;;;;;;;5039966;28;20029;-66
2022/05/22 09:09:05;;;;;;;17.17;2.65;;;;;;;;;;5046408;28;20041;-66
2022/05/22 09:11:39;;;;;;;12.63;2.95;;;;;;;;;;5042531;28;20060;-66
2022/05/22 09:14:05;;;;;;;9.43;2.55;;;;;;;;;;5048561;28;20017;-66
2022/05/22 09:16:33;;;;;;;11.15;2.50;;;;;;;;;;5044874;28;20080;-66
2022/05/22 09:19:07;;;;;;;9.95;2.72;;;;;;;;;;5049132;28;20425;-66
2022/05/22 09:21:46;;;;;;;9.13;2.97;;;;;;;;;;5047982;28;20389;-66
2022/05/22 09:24:17;;;;;;;13.15;2.80;;;;;;;;;;5043465;28;20533;-66
2022/05/22 09:26:44;;;;;;;13.15;2.90;;;;;;;;;;5049283;28;20021;-66
2022/05/22 09:29:19;;;;;;;13.25;3.40;;;;;;;;;;5032751;28;20021;-66
2022/05/22 09:31:56;;;;;;;11.63;3.00;;;;;;;;;;5046694;28;20416;-67
2022/05/22 09:34:39;;;;;;;9.25;2.97;;;;;;;;;;5045787;28;20269;-66
2022/05/22 09:37:20;;;;;;;17.85;3.47;;;;;;;;;;5044707;28;20025;-67
2022/05/22 09:40:03;;;;;;;10.02;2.80;;;;;;;;;;5048917;28;20389;-66
2022/05/22 09:42:34;;;;;;;8.13;2.33;;;;;;;;;;5039498;28;20029;-66
2022/05/22 09:45:18;;;;;;;11.05;3.03;;;;;;;;;;5048679;28;20017;-66
2022/05/22 09:47:43;;;;;;;12.57;2.53;;;;;;;;;;5049312;28;20025;-66
2022/05/22 09:50:28;;;;;;;7.90;2.60;;;;;;;;;;5046109;28;20088;-68
2022/05/22 09:52:54;;;;;;;9.02;2.42;;;;;;;;;;5047985;28;20031;-68
2022/05/22 09:55:19;;;;;;;15.80;3.17;;;;;;;;;;5034157;28;20021;-67
2022/05/22 09:57:44;;;;;;;20.37;3.93;;;;;;;;;;5045288;28;20027;-68
2022/05/22 10:00:13;;;;;;;7.90;2.45;;;;;;;;;;5042760;28;20023;-67
2022/05/22 10:02:53;;;;;;;6.95;2.03;;;;;;;;;;5047552;28;20032;-67
2022/05/22 10:05:41;;;;;;;10.57;2.58;;;;;;;;;;5057077;28;20027;-67
2022/05/22 10:08:06;;;;;;;8.65;3.28;;;;;;;;;;5048664;28;20024;-67
2022/05/22 10:10:39;;;;;;;12.57;3.40;;;;;;;;;;5046315;28;20025;-67
2022/05/22 10:13:18;;;;;;;12.15;3.97;;;;;;;;;;5049590;28;20047;-67
2022/05/22 10:15:48;;;;;;;9.05;2.90;;;;;;;;;;5049522;28;20024;-68
2022/05/22 10:18:37;;;;;;;10.02;3.08;;;;;;;;;;5050679;28;20489;-67
2022/05/22 10:21:17;;;;;;;10.98;3.05;;;;;;;;;;5050406;28;20108;-68
2022/05/22 10:23:54;;;;;;;10.55;2.83;;;;;;;;;;5037928;28;20031;-68
2022/05/22 10:26:35;;;;;;;11.80;3.05;;;;;;;;;;5055093;28;20069;-67
2022/05/22 10:29:05;;;;;;;10.77;3.10;;;;;;;;;;5051202;28;20019;-68
2022/05/22 10:31:30;;;;;;;;;;;;;;;;;;5051823;28;20021;-67
2022/05/22 10:34:01;;;;;;;10.32;3.03;;;;;;;;;;5048510;28;19909;-68
2022/05/22 10:36:28;;;;;;;10.43;2.17;;;;;;;;;;5052313;28;20021;-67
2022/05/22 10:39:06;;;;;;;9.25;2.28;;;;;;;;;;5033097;28;20109;-67
2022/05/22 10:44:19;;;;;;;9.48;2.33;;;;;;;;;;5033532;28;20074;-68
2022/05/22 10:46:51;;;;;;;12.30;2.83;;;;;;;;;;5052996;28;20021;-67
2022/05/22 10:49:18;;;;;;;12.60;2.97;;;;;;;;;;5050848;28;20022;-68
2022/05/22 10:51:54;;;;;;;8.52;2.13;;;;;;;;;;5033322;28;20021;-67
2022/05/22 10:54:23;;;;;;;14.70;2.67;;;;;;;;;;5033448;28;20021;-68
2022/05/22 10:56:48;;;;;;;18.70;4.30;;;;;;;;;;5035342;28;20510;-67
2022/05/22 10:59:22;;;;;;;10.67;2.60;;;;;;;;;;5053155;28;20037;-67
2022/05/22 11:01:56;;;;;;;11.85;2.90;;;;;;;;;;5053023;28;20016;-67
2022/05/22 11:04:32;;;;;;;7.00;1.70;;;;;;;;;;5052936;28;20025;-67
2022/05/22 11:07:01;;;;;;;9.63;2.53;;;;;;;;;;5044881;28;20033;-67
2022/05/22 11:09:28;;;;;;;9.50;2.35;;;;;;;;;;5038993;28;20560;-68
2022/05/22 11:12:03;;;;;;;10.10;3.70;;;;;;;;;;5053618;28;20044;-67
2022/05/22 11:14:32;;;;;;;13.27;3.53;;;;;;;;;;5053880;28;20071;-68
2022/05/22 11:17:06;;;;;;;13.57;2.88;;;;;;;;;;5048407;28;20024;-67
2022/05/22 11:19:31;;;;;;;8.63;2.83;;;;;;;;;;5054059;28;20071;-67
2022/05/22 11:22:06;;;;;;;6.25;2.55;;;;;;;;;;5051852;28;20627;-67
2022/05/22 11:24:31;;;;;;;7.07;2.70;;;;;;;;;;5050085;28;20071;-67
2022/05/22 11:27:15;;;;;;;6.72;2.80;;;;;;;;;;5050596;28;20493;-67
2022/05/22 11:29:47;;;;;;;12.55;2.88;;;;;;;;;;5052355;28;20021;-68
2022/05/22 11:32:15;;;;;;;8.75;2.80;;;;;;;;;;5052122;28;20019;-68
2022/05/22 11:34:49;;;;;;;7.60;3.20;;;;;;;;;;5051279;28;20033;-68
2022/05/22 11:37:30;;;;;;;11.40;3.40;;;;;;;;;;5046473;28;20014;-67
2022/05/22 11:40:07;;;;;;;12.02;3.28;;;;;;;;;;5055068;28;20017;-67
2022/05/22 11:42:39;;;;;;;10.00;2.88;;;;;;;;;;5041035;28;20030;-67
2022/05/22 11:45:32;;;;;;;9.48;3.25;;;;;;;;;;5038656;28;20485;-68
2022/05/22 11:48:06;;;;;;;15.20;3.50;;;;;;;;;;5021375;28;20041;-68
2022/05/22 11:50:33;;;;;;;11.52;3.83;;;;;;;;;;5051223;28;20024;-68
2022/05/22 11:53:17;;;;;;;11.32;3.45;;;;;;;;;;5046145;28;20021;-67
2022/05/22 11:55:45;;;;;;;13.20;3.80;;;;;;;;;;5049664;28;20027;-68
2022/05/22 11:58:13;;;;;;;7.43;2.90;;;;;;;;;;5047451;28;20017;-68
2022/05/22 12:00:57;;;;;;;10.10;3.72;;;;;;;;;;5050618;28;20076;-68
2022/05/22 12:03:35;;;;;;;13.23;2.85;;;;;;;;;;5047808;28;20631;-67
2022/05/22 12:06:19;;;;;;;13.48;3.15;;;;;;;;;;5047750;28;20021;-67
2022/05/22 12:09:22;;;;;;;8.23;2.88;;;;;;;;;;5050261;28;20032;-67
2022/05/22 12:11:51;;;;;;;7.72;2.58;;;;;;;;;;4996567;28;21857;-67
2022/05/22 12:14:16;;;;;;;12.05;3.63;;;;;;;;;;4998304;28;20077;-68
2022/05/22 12:16:46;;;;;;;5.77;3.40;;;;;;;;;;5022602;28;20045;-67
2022/05/22 12:19:20;;;;;;;19.80;3.80;;;;;;;;;;5043436;28;20620;-67
2022/05/22 12:22:14;;;;;;;10.77;3.45;;;;;;;;;;5057077;28;20028;-67
2022/05/22 12:24:59;;;;;;;10.45;3.70;;;;;;;;;;5032334;28;20124;-67
2022/05/22 12:27:26;;;;;;;12.10;3.55;;;;;;;;;;5046229;28;20056;-68
2022/05/22 12:29:58;;;;;;;11.98;4.05;;;;;;;;;;5044269;28;20109;-68
2022/05/22 12:32:25;;;;;;;11.93;3.85;;;;;;;;;;5043111;28;20421;-68
2022/05/22 12:34:55;;;;;;;10.73;3.58;;;;;;;;;;5054282;28;20103;-68
2022/05/22 12:37:27;;;;;;;6.82;2.15;;;;;;;;;;5049746;28;20504;-69
2022/05/22 12:39:58;;;;;;;9.52;3.42;;;;;;;;;;5044278;28;20035;-66
2022/05/22 12:42:28;;;;;;;6.88;3.28;;;;;;;;;;5044006;28;20025;-66
2022/05/22 12:44:54;;;;;;;;;;;;;;;;;;5049470;28;20044;-66
2022/05/22 12:47:19;;;;;;;10.03;3.13;;;;;;;;;;5044539;28;20000;-66
2022/05/22 12:49:55;;;;;;;13.63;3.05;;;;;;;;;;5042844;28;20267;-66
2022/05/22 12:52:33;;;;;;;9.30;3.33;;;;;;;;;;5050755;28;20469;-66
2022/05/22 12:55:05;;;;;;;7.97;2.70;;;;;;;;;;5043712;28;20032;-66
2022/05/22 12:57:30;;;;;;;12.55;3.92;;;;;;;;;;5048536;28;20362;-66
2022/05/22 12:59:59;;;;;;;10.55;3.13;;;;;;;;;;5043533;28;20018;-67
2022/05/22 13:02:45;;;;;;;14.57;3.65;;;;;;;;;;5044185;28;20037;-66
2022/05/22 13:05:22;;;;;;;9.77;3.38;;;;;;;;;;5043100;28;20433;-66
2022/05/22 13:07:48;;;;;;;8.48;3.78;;;;;;;;;;5048462;28;20044;-66
2022/05/22 13:10:21;;;;;;;5.63;2.67;;;;;;;;;;5048970;28;20043;-66
2022/05/22 13:12:51;;;;;;;12.00;3.88;;;;;;;;;;5049673;28;20021;-66
2022/05/22 13:15:22;;;;;;;8.02;3.28;;;;;;;;;;5043180;28;20017;-66
2022/05/22 13:17:51;;;;;;;11.70;2.88;;;;;;;;;;5048869;28;20017;-66
2022/05/22 13:20:25;;;;;;;9.90;3.33;;;;;;;;;;5045512;28;20060;-66
2022/05/22 13:23:01;;;;;;;7.30;3.25;;;;;;;;;;5039167;28;20358;-66
2022/05/22 13:25:28;;;;;;;8.45;3.22;;;;;;;;;;5039986;28;20022;-66
2022/05/22 13:27:53;;;;;;;8.63;3.28;;;;;;;;;;5046698;28;20017;-66
2022/05/22 13:30:29;;;;;;;11.15;3.80;;;;;;;;;;5043593;28;20023;-66
2022/05/22 13:33:05;;;;;;;8.73;3.40;;;;;;;;;;5040971;28;20044;-66
2022/05/22 13:35:48;;;;;;;8.70;2.47;;;;;;;;;;5053201;28;20024;-66
2022/05/22 13:38:13;;;;;;;9.25;2.50;;;;;;;;;;5043929;28;20025;-66
2022/05/22 13:40:48;;;;;;;11.80;2.93;;;;;;;;;;5038970;28;20479;-66
2022/05/22 13:43:22;;;;;;;11.60;3.55;;;;;;;;;;5043369;28;20268;-66
2022/05/22 13:46:09;;;;;;;8.55;2.85;;;;;;;;;;5047947;28;20389;-66
2022/05/22 13:48:43;;;;;;;10.10;3.10;;;;;;;;;;5041963;28;20028;-66
2022/05/22 13:54:23;;;;;;;10.60;2.90;;;;;;;;;;5047358;28;20031;-66
2022/05/22 13:56:50;;;;;;;9.82;2.67;;;;;;;;;;5041883;28;20343;-66
2022/05/22 13:59:23;;;;;;;8.98;2.70;;;;;;;;;;5030107;28;20485;-66
2022/05/22 14:01:48;;;;;;;9.23;3.33;;;;;;;;;;5050279;28;20025;-66
2022/05/22 14:04:14;;;;;;;5.22;2.45;;;;;;;;;;5050971;28;20023;-66
2022/05/22 14:06:39;;;;;;;8.88;2.30;;;;;;;;;;5054430;28;20051;-66
2022/05/22 14:09:05;;;;;;;10.70;2.60;;;;;;;;;;5029721;28;20053;-66
2022/05/22 14:11:34;;;;;;;7.28;2.08;;;;;;;;;;5051496;28;20271;-66
2022/05/22 14:14:01;;;;;;;8.55;2.67;;;;;;;;;;5046015;28;20045;-66
2022/05/22 14:16:28;;;;;;;7.25;2.00;;;;;;;;;;5048067;28;20035;-66
2022/05/22 14:19:07;;;;;;;8.60;2.17;;;;;;;;;;5055905;28;20113;-66
2022/05/22 14:21:34;;;;;;;12.57;3.33;;;;;;;;;;5043748;28;20119;-66
2022/05/22 14:26:45;;;;;;;9.93;1.90;;;;;;;;;;5048984;28;20051;-66
2022/05/22 14:29:12;;;;;;;8.18;2.22;;;;;;;;;;5049000;28;20363;-66
2022/05/22 14:31:45;;;;;;;10.00;2.03;;;;;;;;;;5045146;28;20049;-66
2022/05/22 14:34:17;;;;;;;6.43;1.40;;;;;;;;;;5035678;28;20095;-66
2022/05/22 14:36:49;;;;;;;6.28;2.20;;;;;;;;;;5043523;28;20025;-66
2022/05/22 14:39:16;;;;;;;5.97;2.15;;;;;;;;;;5040925;28;20029;-67
2022/05/22 14:41:43;;;;;;;9.52;2.05;;;;;;;;;;5035934;28;20335;-66
2022/05/22 14:44:12;;;;;;;6.35;1.92;;;;;;;;;;5056617;28;20012;-66
2022/05/22 14:46:42;;;;;;;5.22;1.80;;;;;;;;;;5046048;28;20079;-66
2022/05/22 14:49:15;;;;;;;5.68;2.00;;;;;;;;;;5045591;28;20374;-66
2022/05/22 14:51:57;;;;;;;5.70;2.22;;;;;;;;;;5047172;28;20025;-66
2022/05/22 14:54:31;;;;;;;11.07;2.20;;;;;;;;;;5045555;28;20079;-66
2022/05/22 14:57:03;;;;;;;8.43;2.15;;;;;;;;;;5040942;28;20013;-66
2022/05/22 14:59:32;;;;;;;3.95;1.60;;;;;;;;;;5050926;28;20095;-66
2022/05/22 15:01:57;;;;;;;6.03;1.80;;;;;;;;;;5048087;28;20017;-66
2022/05/22 15:04:24;;;;;;;6.80;1.55;;;;;;;;;;5051200;28;20017;-66